Tolaga — D5BW4 — position and weather

sailwx.info

Track history (hours):
 
Tides and Currents Weather Stations Pressure Air Temp Water Temp Dewpoint Dewpoint Depression Visibility Wind Speed Wind Dir Waves Ship Positions

Tolaga

Last reported at 2018-Jun-24 09:00 UTC. Time now 2018-Jun-24 09:20 UTC.
Position N 37°57' E 023°35'.

Length 122 m; draft 5.4 m.

Type: Cargo ship. MMSI: 636015618.

Date/timePositionNaut miles runAvg speedWind from/ knotsBaromVisibWave heightAir tempDewpointWater temp
2018-Jun-24 09:00N 37°57' E 023°35'0 0.0
2018-Jun-24 08:30N 37°57' E 023°35'0 0.0
2018-Jun-24 08:00N 37°57' E 023°35'0 0.0
2018-Jun-24 07:28N 37°57' E 023°35'0 0.0
2018-Jun-24 07:00N 37°57' E 023°35'0 0.0
2018-Jun-24 06:30N 37°57' E 023°35'0 0.0
2018-Jun-24 06:00N 37°57' E 023°35'0 0.0
2018-Jun-24 05:30N 37°57' E 023°35'0 0.0
2018-Jun-24 05:00N 37°57' E 023°35'0 0.0
2018-Jun-24 04:30N 37°57' E 023°35'0 0.0
2018-Jun-24 04:00N 37°57' E 023°35'0 0.0
2018-Jun-24 03:28N 37°57' E 023°35'0 0.0
2018-Jun-24 02:58N 37°57' E 023°35'0 0.0
2018-Jun-24 02:28N 37°57' E 023°35'0 0.0
2018-Jun-24 01:58N 37°57' E 023°35'0 0.0
2018-Jun-24 01:28N 37°57' E 023°35'0 0.0
2018-Jun-24 00:55N 37°57' E 023°35'0 0.0
2018-Jun-24 00:28N 37°57' E 023°35'0 0.0
2018-Jun-23 23:58N 37°57' E 023°35'0 0.0
2018-Jun-23 23:28N 37°57' E 023°35'0 0.0
2018-Jun-23 22:58N 37°57' E 023°35'0 0.0
2018-Jun-23 22:28N 37°57' E 023°35'0 0.0
2018-Jun-23 21:58N 37°57' E 023°35'0 0.0
2018-Jun-23 21:28N 37°57' E 023°35'0 0.0
2018-Jun-23 20:58N 37°57' E 023°35'0 0.0
2018-Jun-23 20:28N 37°57' E 023°35'0 0.0
2018-Jun-23 19:58N 37°57' E 023°35'0 0.0
2018-Jun-23 19:25N 37°57' E 023°35'0 0.0
2018-Jun-23 18:58N 37°57' E 023°35'0 0.0
2018-Jun-23 18:28N 37°57' E 023°35'0 0.0
2018-Jun-23 17:55N 37°57' E 023°35'0 0.0
2018-Jun-23 17:25N 37°57' E 023°35'0 0.0
2018-Jun-23 16:58N 37°57' E 023°35'0 0.0
2018-Jun-23 16:25N 37°57' E 023°35'0 0.0
2018-Jun-23 15:55N 37°57' E 023°35'0 0.0
2018-Jun-23 15:28N 37°57' E 023°35'0 0.0
2018-Jun-23 14:58N 37°57' E 023°35'0 0.0
2018-Jun-23 14:28N 37°57' E 023°35'0 0.0
2018-Jun-23 13:58N 37°57' E 023°35'0 0.0
2018-Jun-23 13:28N 37°57' E 023°35'0 0.0
2018-Jun-23 13:00N 37°57' E 023°35'1 2.4
2018-Jun-23 12:30N 37°56' E 023°35'2 3.6
2018-Jun-23 12:00N 37°54' E 023°34'1 1.3
2018-Jun-23 11:29N 37°54' E 023°34'0 0.1
2018-Jun-23 10:59N 37°54' E 023°34'0 0.0
2018-Jun-23 10:29N 37°54' E 023°34'0 0.0
2018-Jun-23 09:59N 37°54' E 023°34'0 0.1
2018-Jun-23 09:27N 37°54' E 023°34'0 0.1
2018-Jun-23 08:59N 37°54' E 023°34'0 0.1
2018-Jun-23 08:29N 37°54' E 023°34'0 0.0
2018-Jun-23 07:59N 37°54' E 023°34'0 0.0
2018-Jun-23 07:29N 37°54' E 023°34'0 0.0
2018-Jun-23 06:57N 37°54' E 023°34'0 0.0
2018-Jun-23 06:29N 37°54' E 023°34'0 0.0
2018-Jun-23 05:59N 37°54' E 023°34'0 0.0
2018-Jun-23 05:29N 37°54' E 023°34'0 0.0
2018-Jun-23 04:59N 37°54' E 023°34'0 0.0
2018-Jun-23 04:29N 37°54' E 023°34'0 0.0
2018-Jun-23 03:59N 37°54' E 023°34'0 0.0
2018-Jun-23 03:29N 37°54' E 023°34'0 0.0
2018-Jun-23 02:57N 37°54' E 023°34'0 0.0
2018-Jun-23 02:27N 37°54' E 023°34'0 0.0
2018-Jun-23 01:59N 37°54' E 023°34'0 0.1
2018-Jun-23 01:29N 37°54' E 023°34'0 0.0
2018-Jun-23 00:59N 37°54' E 023°34'0 0.0
2018-Jun-23 00:27N 37°54' E 023°34'0 0.2
2018-Jun-23 00:00N 37°54' E 023°34'3 6.8
2018-Jun-22 23:30N 37°52' E 023°37'4 8.3
2018-Jun-22 23:00N 37°49' E 023°40'4 8.9
2018-Jun-22 22:31N 37°45' E 023°43'5 9.2
2018-Jun-22 22:00N 37°40' E 023°45'5 9.6
2018-Jun-22 21:31N 37°36' E 023°44'5 9.6
2018-Jun-22 21:01N 37°31' E 023°43'5 9.3
2018-Jun-22 20:30N 37°26' E 023°41'4 9.0
2018-Jun-22 20:00N 37°22' E 023°40'4 8.8
2018-Jun-22 19:30N 37°18' E 023°39'4 9.0
2018-Jun-22 19:01N 37°13' E 023°37'5 9.2
2018-Jun-22 18:30N 37°09' E 023°36'5 9.5
2018-Jun-22 18:00N 37°04' E 023°35'8 9.7
2018-Jun-22 17:12N 36°57' E 023°32'  
2018-Jun-16 13:46N 37°19' E 023°38'1013.5
2018-Jun-16 13:00N 37°29' E 023°39'713.6
2018-Jun-16 12:30N 37°35' E 023°41'713.5
2018-Jun-16 12:00N 37°42' E 023°40'713.5
2018-Jun-16 11:30N 37°49' E 023°37'713.0
2018-Jun-16 11:00N 37°55' E 023°36'3 4.5
2018-Jun-16 10:27N 37°57' E 023°35'0 0.0
2018-Jun-16 09:57N 37°57' E 023°35'0 0.0
2018-Jun-16 09:26N 37°57' E 023°35'0 0.0
2018-Jun-16 08:57N 37°57' E 023°35'0 0.0
2018-Jun-16 08:27N 37°57' E 023°35'0 0.0
2018-Jun-16 07:57N 37°57' E 023°35'0 0.0
2018-Jun-16 07:27N 37°57' E 023°35'0 0.0
2018-Jun-16 06:57N 37°57' E 023°35'0 0.0
2018-Jun-16 06:27N 37°57' E 023°35'0 0.0
2018-Jun-16 05:57N 37°57' E 023°35'0 0.0
2018-Jun-16 05:26N 37°57' E 023°35'0 0.0
2018-Jun-16 04:51N 37°57' E 023°35'0 0.0
2018-Jun-16 04:27N 37°57' E 023°35'0 0.0
2018-Jun-16 03:57N 37°57' E 023°35'0 0.0
2018-Jun-16 03:27N 37°57' E 023°35'0 0.0
2018-Jun-16 02:56N 37°57' E 023°35'0 0.0
2018-Jun-16 02:28N 37°57' E 023°35'0 0.0
2018-Jun-16 01:58N 37°57' E 023°35'0 0.0
2018-Jun-16 01:26N 37°57' E 023°35'0 0.0
2018-Jun-16 00:58N 37°57' E 023°35'0 0.0
2018-Jun-16 00:28N 37°57' E 023°35'0 0.0
2018-Jun-15 23:58N 37°57' E 023°35'0 0.0
2018-Jun-15 23:28N 37°57' E 023°35'0 0.0
2018-Jun-15 22:56N 37°57' E 023°35'0 0.0
2018-Jun-15 22:28N 37°57' E 023°35'0 0.0
2018-Jun-15 21:56N 37°57' E 023°35'0 0.0
2018-Jun-15 21:26N 37°57' E 023°35'0 0.0
2018-Jun-15 20:56N 37°57' E 023°35'0 0.0
2018-Jun-15 20:28N 37°57' E 023°35'0 0.0
2018-Jun-15 19:58N 37°57' E 023°35'0 0.0
2018-Jun-15 19:28N 37°57' E 023°35'0 0.0
2018-Jun-15 18:59N 37°57' E 023°35'0 0.0
2018-Jun-15 18:29N 37°57' E 023°35'0 0.0
2018-Jun-15 17:47N 37°57' E 023°35'0 0.0
2018-Jun-15 17:29N 37°57' E 023°35'0 0.0
2018-Jun-15 16:59N 37°57' E 023°35'0 0.0
2018-Jun-15 16:28N 37°57' E 023°35'0 0.0
2018-Jun-15 15:59N 37°57' E 023°35'0 0.0
2018-Jun-15 15:29N 37°57' E 023°35'0 0.0
2018-Jun-15 14:59N 37°57' E 023°35'0 0.0
2018-Jun-15 14:29N 37°57' E 023°35'0 0.0
2018-Jun-15 13:57N 37°57' E 023°35'0 0.0
2018-Jun-15 13:29N 37°57' E 023°35'0 0.0
2018-Jun-15 12:59N 37°57' E 023°35'0 0.0
2018-Jun-15 12:29N 37°57' E 023°35'0 0.0
2018-Jun-15 11:59N 37°57' E 023°35'0 0.0
2018-Jun-15 11:29N 37°57' E 023°35'0 0.0
2018-Jun-15 10:59N 37°57' E 023°35'0 0.0
2018-Jun-15 10:29N 37°57' E 023°35'0 0.0
2018-Jun-15 09:59N 37°57' E 023°35'0 0.0
2018-Jun-15 09:27N 37°57' E 023°35'0 0.0
2018-Jun-15 08:59N 37°57' E 023°35'0 0.0
2018-Jun-15 08:29N 37°57' E 023°35'0 0.0
2018-Jun-15 07:59N 37°57' E 023°35'0 0.0
2018-Jun-15 07:29N 37°57' E 023°35'0 0.0
2018-Jun-15 06:59N 37°57' E 023°35'0 0.0
2018-Jun-15 06:23N 37°57' E 023°35'0 0.0
2018-Jun-15 05:59N 37°57' E 023°35'0 0.0
2018-Jun-15 05:30N 37°57' E 023°35'1 2.9
2018-Jun-15 05:00N 37°56' E 023°35'2 3.7
2018-Jun-15 04:30N 37°54' E 023°34'1 1.2
2018-Jun-15 04:00N 37°54' E 023°34'0 0.5
2018-Jun-15 03:27N 37°54' E 023°33'0 0.1
2018-Jun-15 02:57N 37°53' E 023°33'0 0.1
2018-Jun-15 02:27N 37°53' E 023°34'0 0.1
2018-Jun-15 01:55N 37°53' E 023°34'0 0.0
2018-Jun-15 01:29N 37°53' E 023°34'0 0.1
2018-Jun-15 00:58N 37°53' E 023°34'0 0.1
2018-Jun-15 00:28N 37°53' E 023°34'0 0.1
2018-Jun-14 23:58N 37°54' E 023°34'0 0.1
2018-Jun-14 23:28N 37°53' E 023°34'0 0.0
2018-Jun-14 22:59N 37°53' E 023°34'0 0.0
2018-Jun-14 22:28N 37°53' E 023°34'0 0.0
2018-Jun-14 21:59N 37°53' E 023°34'0 0.0
2018-Jun-14 21:28N 37°53' E 023°34'0 0.0
2018-Jun-14 20:58N 37°53' E 023°34'0 0.0
2018-Jun-14 20:28N 37°53' E 023°34'0 0.0
2018-Jun-14 19:59N 37°53' E 023°34'0 0.0
2018-Jun-14 19:28N 37°53' E 023°34'0 0.0
2018-Jun-14 18:58N 37°53' E 023°34'0 0.1
2018-Jun-14 18:28N 37°53' E 023°34'0 0.2
2018-Jun-14 17:59N 37°54' E 023°34'0 0.1
2018-Jun-14 17:30N 37°54' E 023°33'3 5.6
2018-Jun-14 17:00N 37°52' E 023°36'5 9.5
2018-Jun-14 16:30N 37°49' E 023°41'510.4
2018-Jun-14 16:00N 37°44' E 023°43'510.1
2018-Jun-14 15:30N 37°39' E 023°46'5 9.6
2018-Jun-14 15:00N 37°34' E 023°46'5 9.7
2018-Jun-14 14:30N 37°30' E 023°44'5 9.6
2018-Jun-14 14:00N 37°25' E 023°43'5 9.4
2018-Jun-14 13:30N 37°21' E 023°41'5 9.2
2018-Jun-14 13:00N 37°16' E 023°39'5 9.2
2018-Jun-14 12:30N 37°12' E 023°38'8 9.4
2018-Jun-14 11:39N 37°04' E 023°34'2 9.3
2018-Jun-14 11:25N 37°02' E 023°34'6 9.4
2018-Jun-14 10:44N 36°56' E 023°31'2 9.6
2018-Jun-14 10:30N 36°54' E 023°30'  
Track history (hours):
 
Tides and Currents Weather Stations Pressure Air Temp Water Temp Dewpoint Dewpoint Depression Visibility Wind Speed Wind Dir Waves Ship Positions

Tolaga

Last reported at 2018-Jun-24 09:00 UTC. Time now 2018-Jun-24 09:20 UTC.
Position N 37°57' E 023°35'.

Length 122 m; draft 5.4 m.

Type: Cargo ship. MMSI: 636015618.

Date/timePositionNaut miles runAvg speedWind from/ knotsBaromVisibWave heightAir tempDewpointWater temp
2018-Jun-24 09:00N 37°57' E 023°35'0 0.0
2018-Jun-24 08:30N 37°57' E 023°35'0 0.0
2018-Jun-24 08:00N 37°57' E 023°35'0 0.0
2018-Jun-24 07:28N 37°57' E 023°35'0 0.0
2018-Jun-24 07:00N 37°57' E 023°35'0 0.0
2018-Jun-24 06:30N 37°57' E 023°35'0 0.0
2018-Jun-24 06:00N 37°57' E 023°35'0 0.0
2018-Jun-24 05:30N 37°57' E 023°35'0 0.0
2018-Jun-24 05:00N 37°57' E 023°35'0 0.0
2018-Jun-24 04:30N 37°57' E 023°35'0 0.0
2018-Jun-24 04:00N 37°57' E 023°35'0 0.0
2018-Jun-24 03:28N 37°57' E 023°35'0 0.0
2018-Jun-24 02:58N 37°57' E 023°35'0 0.0
2018-Jun-24 02:28N 37°57' E 023°35'0 0.0
2018-Jun-24 01:58N 37°57' E 023°35'0 0.0
2018-Jun-24 01:28N 37°57' E 023°35'0 0.0
2018-Jun-24 00:55N 37°57' E 023°35'0 0.0
2018-Jun-24 00:28N 37°57' E 023°35'0 0.0
2018-Jun-23 23:58N 37°57' E 023°35'0 0.0
2018-Jun-23 23:28N 37°57' E 023°35'0 0.0
2018-Jun-23 22:58N 37°57' E 023°35'0 0.0
2018-Jun-23 22:28N 37°57' E 023°35'0 0.0
2018-Jun-23 21:58N 37°57' E 023°35'0 0.0
2018-Jun-23 21:28N 37°57' E 023°35'0 0.0
2018-Jun-23 20:58N 37°57' E 023°35'0 0.0
2018-Jun-23 20:28N 37°57' E 023°35'0 0.0
2018-Jun-23 19:58N 37°57' E 023°35'0 0.0
2018-Jun-23 19:25N 37°57' E 023°35'0 0.0
2018-Jun-23 18:58N 37°57' E 023°35'0 0.0
2018-Jun-23 18:28N 37°57' E 023°35'0 0.0
2018-Jun-23 17:55N 37°57' E 023°35'0 0.0
2018-Jun-23 17:25N 37°57' E 023°35'0 0.0
2018-Jun-23 16:58N 37°57' E 023°35'0 0.0
2018-Jun-23 16:25N 37°57' E 023°35'0 0.0
2018-Jun-23 15:55N 37°57' E 023°35'0 0.0
2018-Jun-23 15:28N 37°57' E 023°35'0 0.0
2018-Jun-23 14:58N 37°57' E 023°35'0 0.0
2018-Jun-23 14:28N 37°57' E 023°35'0 0.0
2018-Jun-23 13:58N 37°57' E 023°35'0 0.0
2018-Jun-23 13:28N 37°57' E 023°35'0 0.0
2018-Jun-23 13:00N 37°57' E 023°35'1 2.4
2018-Jun-23 12:30N 37°56' E 023°35'2 3.6
2018-Jun-23 12:00N 37°54' E 023°34'1 1.3
2018-Jun-23 11:29N 37°54' E 023°34'0 0.1
2018-Jun-23 10:59N 37°54' E 023°34'0 0.0
2018-Jun-23 10:29N 37°54' E 023°34'0 0.0
2018-Jun-23 09:59N 37°54' E 023°34'0 0.1
2018-Jun-23 09:27N 37°54' E 023°34'0 0.1
2018-Jun-23 08:59N 37°54' E 023°34'0 0.1
2018-Jun-23 08:29N 37°54' E 023°34'0 0.0
2018-Jun-23 07:59N 37°54' E 023°34'0 0.0
2018-Jun-23 07:29N 37°54' E 023°34'0 0.0
2018-Jun-23 06:57N 37°54' E 023°34'0 0.0
2018-Jun-23 06:29N 37°54' E 023°34'0 0.0
2018-Jun-23 05:59N 37°54' E 023°34'0 0.0
2018-Jun-23 05:29N 37°54' E 023°34'0 0.0
2018-Jun-23 04:59N 37°54' E 023°34'0 0.0
2018-Jun-23 04:29N 37°54' E 023°34'0 0.0
2018-Jun-23 03:59N 37°54' E 023°34'0 0.0
2018-Jun-23 03:29N 37°54' E 023°34'0 0.0
2018-Jun-23 02:57N 37°54' E 023°34'0 0.0
2018-Jun-23 02:27N 37°54' E 023°34'0 0.0
2018-Jun-23 01:59N 37°54' E 023°34'0 0.1
2018-Jun-23 01:29N 37°54' E 023°34'0 0.0
2018-Jun-23 00:59N 37°54' E 023°34'0 0.0
2018-Jun-23 00:27N 37°54' E 023°34'0 0.2
2018-Jun-23 00:00N 37°54' E 023°34'3 6.8
2018-Jun-22 23:30N 37°52' E 023°37'4 8.3
2018-Jun-22 23:00N 37°49' E 023°40'4 8.9
2018-Jun-22 22:31N 37°45' E 023°43'5 9.2
2018-Jun-22 22:00N 37°40' E 023°45'5 9.6
2018-Jun-22 21:31N 37°36' E 023°44'5 9.6
2018-Jun-22 21:01N 37°31' E 023°43'5 9.3
2018-Jun-22 20:30N 37°26' E 023°41'4 9.0
2018-Jun-22 20:00N 37°22' E 023°40'4 8.8
2018-Jun-22 19:30N 37°18' E 023°39'4 9.0
2018-Jun-22 19:01N 37°13' E 023°37'5 9.2
2018-Jun-22 18:30N 37°09' E 023°36'5 9.5
2018-Jun-22 18:00N 37°04' E 023°35'8 9.7
2018-Jun-22 17:12N 36°57' E 023°32'  
2018-Jun-16 13:46N 37°19' E 023°38'1013.5
2018-Jun-16 13:00N 37°29' E 023°39'713.6
2018-Jun-16 12:30N 37°35' E 023°41'713.5
2018-Jun-16 12:00N 37°42' E 023°40'713.5
2018-Jun-16 11:30N 37°49' E 023°37'713.0
2018-Jun-16 11:00N 37°55' E 023°36'3 4.5
2018-Jun-16 10:27N 37°57' E 023°35'0 0.0
2018-Jun-16 09:57N 37°57' E 023°35'0 0.0
2018-Jun-16 09:26N 37°57' E 023°35'0 0.0
2018-Jun-16 08:57N 37°57' E 023°35'0 0.0
2018-Jun-16 08:27N 37°57' E 023°35'0 0.0
2018-Jun-16 07:57N 37°57' E 023°35'0 0.0
2018-Jun-16 07:27N 37°57' E 023°35'0 0.0
2018-Jun-16 06:57N 37°57' E 023°35'0 0.0
2018-Jun-16 06:27N 37°57' E 023°35'0 0.0
2018-Jun-16 05:57N 37°57' E 023°35'0 0.0
2018-Jun-16 05:26N 37°57' E 023°35'0 0.0
2018-Jun-16 04:51N 37°57' E 023°35'0 0.0
2018-Jun-16 04:27N 37°57' E 023°35'0 0.0
2018-Jun-16 03:57N 37°57' E 023°35'0 0.0
2018-Jun-16 03:27N 37°57' E 023°35'0 0.0
2018-Jun-16 02:56N 37°57' E 023°35'0 0.0
2018-Jun-16 02:28N 37°57' E 023°35'0 0.0
2018-Jun-16 01:58N 37°57' E 023°35'0 0.0
2018-Jun-16 01:26N 37°57' E 023°35'0 0.0
2018-Jun-16 00:58N 37°57' E 023°35'0 0.0
2018-Jun-16 00:28N 37°57' E 023°35'0 0.0
2018-Jun-15 23:58N 37°57' E 023°35'0 0.0
2018-Jun-15 23:28N 37°57' E 023°35'0 0.0
2018-Jun-15 22:56N 37°57' E 023°35'0 0.0
2018-Jun-15 22:28N 37°57' E 023°35'0 0.0
2018-Jun-15 21:56N 37°57' E 023°35'0 0.0
2018-Jun-15 21:26N 37°57' E 023°35'0 0.0
2018-Jun-15 20:56N 37°57' E 023°35'0 0.0
2018-Jun-15 20:28N 37°57' E 023°35'0 0.0
2018-Jun-15 19:58N 37°57' E 023°35'0 0.0
2018-Jun-15 19:28N 37°57' E 023°35'0 0.0
2018-Jun-15 18:59N 37°57' E 023°35'0 0.0
2018-Jun-15 18:29N 37°57' E 023°35'0 0.0
2018-Jun-15 17:47N 37°57' E 023°35'0 0.0
2018-Jun-15 17:29N 37°57' E 023°35'0 0.0
2018-Jun-15 16:59N 37°57' E 023°35'0 0.0
2018-Jun-15 16:28N 37°57' E 023°35'0 0.0
2018-Jun-15 15:59N 37°57' E 023°35'0 0.0
2018-Jun-15 15:29N 37°57' E 023°35'0 0.0
2018-Jun-15 14:59N 37°57' E 023°35'0 0.0
2018-Jun-15 14:29N 37°57' E 023°35'0 0.0
2018-Jun-15 13:57N 37°57' E 023°35'0 0.0
2018-Jun-15 13:29N 37°57' E 023°35'0 0.0
2018-Jun-15 12:59N 37°57' E 023°35'0 0.0
2018-Jun-15 12:29N 37°57' E 023°35'0 0.0
2018-Jun-15 11:59N 37°57' E 023°35'0 0.0
2018-Jun-15 11:29N 37°57' E 023°35'0 0.0
2018-Jun-15 10:59N 37°57' E 023°35'0 0.0
2018-Jun-15 10:29N 37°57' E 023°35'0 0.0
2018-Jun-15 09:59N 37°57' E 023°35'0 0.0
2018-Jun-15 09:27N 37°57' E 023°35'0 0.0
2018-Jun-15 08:59N 37°57' E 023°35'0 0.0
2018-Jun-15 08:29N 37°57' E 023°35'0 0.0
2018-Jun-15 07:59N 37°57' E 023°35'0 0.0
2018-Jun-15 07:29N 37°57' E 023°35'0 0.0
2018-Jun-15 06:59N 37°57' E 023°35'0 0.0
2018-Jun-15 06:23N 37°57' E 023°35'0 0.0
2018-Jun-15 05:59N 37°57' E 023°35'0 0.0
2018-Jun-15 05:30N 37°57' E 023°35'1 2.9
2018-Jun-15 05:00N 37°56' E 023°35'2 3.7
2018-Jun-15 04:30N 37°54' E 023°34'1 1.2
2018-Jun-15 04:00N 37°54' E 023°34'0 0.5
2018-Jun-15 03:27N 37°54' E 023°33'0 0.1
2018-Jun-15 02:57N 37°53' E 023°33'0 0.1
2018-Jun-15 02:27N 37°53' E 023°34'0 0.1
2018-Jun-15 01:55N 37°53' E 023°34'0 0.0
2018-Jun-15 01:29N 37°53' E 023°34'0 0.1
2018-Jun-15 00:58N 37°53' E 023°34'0 0.1
2018-Jun-15 00:28N 37°53' E 023°34'0 0.1
2018-Jun-14 23:58N 37°54' E 023°34'0 0.1
2018-Jun-14 23:28N 37°53' E 023°34'0 0.0
2018-Jun-14 22:59N 37°53' E 023°34'0 0.0
2018-Jun-14 22:28N 37°53' E 023°34'0 0.0
2018-Jun-14 21:59N 37°53' E 023°34'0 0.0
2018-Jun-14 21:28N 37°53' E 023°34'0 0.0
2018-Jun-14 20:58N 37°53' E 023°34'0 0.0
2018-Jun-14 20:28N 37°53' E 023°34'0 0.0
2018-Jun-14 19:59N 37°53' E 023°34'0 0.0
2018-Jun-14 19:28N 37°53' E 023°34'0 0.0
2018-Jun-14 18:58N 37°53' E 023°34'0 0.1
2018-Jun-14 18:28N 37°53' E 023°34'0 0.2
2018-Jun-14 17:59N 37°54' E 023°34'0 0.1
2018-Jun-14 17:30N 37°54' E 023°33'3 5.6
2018-Jun-14 17:00N 37°52' E 023°36'5 9.5
2018-Jun-14 16:30N 37°49' E 023°41'510.4
2018-Jun-14 16:00N 37°44' E 023°43'510.1
2018-Jun-14 15:30N 37°39' E 023°46'5 9.6
2018-Jun-14 15:00N 37°34' E 023°46'5 9.7
2018-Jun-14 14:30N 37°30' E 023°44'5 9.6
2018-Jun-14 14:00N 37°25' E 023°43'5 9.4
2018-Jun-14 13:30N 37°21' E 023°41'5 9.2
2018-Jun-14 13:00N 37°16' E 023°39'5 9.2
2018-Jun-14 12:30N 37°12' E 023°38'8 9.4
2018-Jun-14 11:39N 37°04' E 023°34'2 9.3
2018-Jun-14 11:25N 37°02' E 023°34'6 9.4
2018-Jun-14 10:44N 36°56' E 023°31'2 9.6
2018-Jun-14 10:30N 36°54' E 023°30'  

Dump ship's entire track history